Time;durP1;ratioP1;P1;durP2;ratioP2;P2;SDS_P1;SDS_P2;PMS_P1;PMS_P2;Temp;Humidity;BMP_temperature;BMP_pressure;BME280_temperature;BME280_humidity;BME280_pressure;Samples;Min_cycle;Max_cycle;Signal;HPM_P1;HPM_P2
2023/03/09 00:00:13;;;;;;;2.33;1.00;;;7.70;1.00;;;9.99;100.00;93179.84;5029097;28;20561;-66
2023/03/09 00:02:49;;;;;;;1.80;0.90;;;7.80;1.00;;;10.32;100.00;93178.31;5028313;28;20690;-66
2023/03/09 00:05:20;;;;;;;1.73;1.10;;;7.80;1.00;;;10.22;100.00;93187.72;5033271;28;20219;-66
2023/03/09 00:07:47;;;;;;;2.43;1.10;;;7.90;1.00;;;10.15;100.00;93194.28;5024757;28;20288;-66
2023/03/09 00:10:16;;;;;;;1.03;0.77;;;7.90;1.00;;;10.24;100.00;93180.97;5030879;28;20328;-67
2023/03/09 00:12:43;;;;;;;0.90;0.80;;;8.00;1.00;;;10.26;100.00;93214.16;5025596;28;20330;-66
2023/03/09 00:15:11;;;;;;;0.87;0.60;;;8.10;1.00;;;10.32;100.00;93228.91;5031161;28;20266;-66
2023/03/09 00:17:38;;;;;;;1.47;0.50;;;8.10;1.00;;;10.27;100.00;93237.06;5029660;28;20275;-67
2023/03/09 00:20:16;;;;;;;2.60;0.70;;;8.20;1.00;;;10.34;100.00;93213.38;5033335;28;20243;-66
2023/03/09 00:22:49;;;;;;;0.83;0.50;;;8.20;1.00;;;10.34;100.00;93232.03;5026542;28;20722;-67
2023/03/09 00:25:16;;;;;;;0.53;0.40;;;8.20;1.00;;;10.17;100.00;93251.78;5030921;28;20654;-66
2023/03/09 00:27:47;;;;;;;1.43;0.47;;;8.20;1.00;;;10.34;100.00;93261.34;5028639;28;20645;-66
2023/03/09 00:30:15;;;;;;;1.90;0.57;;;8.10;1.00;;;10.40;100.00;93281.38;5035096;28;20211;-66
2023/03/09 00:32:42;;;;;;;1.53;0.60;;;8.20;1.00;;;10.25;100.00;93286.41;5027622;28;20215;-66
2023/03/09 00:35:09;;;;;;;0.90;0.50;;;8.10;1.00;;;10.13;100.00;93302.22;5030006;28;20226;-66
2023/03/09 00:37:37;;;;;;;1.23;0.50;;;8.00;1.00;;;10.01;100.00;93294.81;5030227;28;20231;-66
2023/03/09 00:40:09;;;;;;;0.50;0.50;;;7.90;1.00;;;10.29;100.00;93301.44;5033333;28;20207;-66
2023/03/09 00:42:36;;;;;;;0.40;0.40;;;7.90;1.00;;;10.08;100.00;93305.03;5030276;28;20686;-67
2023/03/09 00:45:04;;;;;;;0.87;0.43;;;7.90;1.00;;;9.97;100.00;93288.56;5032944;28;20257;-66
2023/03/09 00:47:31;;;;;;;1.60;0.37;;;7.80;1.00;;;9.97;100.00;93301.06;5025938;28;20219;-66
2023/03/09 00:49:57;;;;;;;1.00;0.50;;;7.90;1.00;;;9.91;100.00;93337.72;5032815;28;20274;-66
2023/03/09 00:52:24;;;;;;;2.20;0.50;;;7.80;1.00;;;9.69;100.00;93348.44;5026419;28;20655;-66
2023/03/09 00:54:53;;;;;;;0.50;0.50;;;7.80;1.00;;;9.62;100.00;93328.69;5029520;28;20237;-66
2023/03/09 00:57:21;;;;;;;2.77;0.50;;;7.70;1.00;;;9.61;100.00;93327.91;5027807;28;20298;-66
2023/03/09 00:59:48;;;;;;;1.00;0.43;;;7.50;1.00;;;9.37;100.00;93340.81;5038345;28;20260;-66
2023/03/09 01:02:15;;;;;;;0.50;0.30;;;7.40;1.00;;;9.59;100.00;93316.00;5028765;28;20731;-66
2023/03/09 01:04:42;;;;;;;1.43;0.40;;;7.30;1.00;;;9.23;100.00;93289.59;5030458;28;20208;-66
2023/03/09 01:07:09;;;;;;;0.43;0.33;;;7.20;1.00;;;9.24;100.00;93279.75;5030462;28;20241;-66
2023/03/09 01:09:37;;;;;;;0.80;0.30;;;7.20;1.00;;;9.29;100.00;93308.84;5036434;28;20236;-65
2023/03/09 01:12:04;;;;;;;0.50;0.27;;;7.20;1.00;;;9.26;100.00;93285.53;5028461;28;20215;-65
2023/03/09 01:14:33;;;;;;;1.67;0.40;;;7.10;1.00;;;9.20;100.00;93294.72;5030673;28;20264;-65
2023/03/09 01:16:59;;;;;;;0.67;0.30;;;7.10;1.00;;;9.12;100.00;93285.63;5026373;28;20625;-65
2023/03/09 01:19:26;;;;;;;1.40;0.40;;;7.10;1.00;;;9.16;100.00;93289.25;5030869;28;20627;-65
2023/03/09 01:21:54;;;;;;;0.63;0.30;;;7.10;1.00;;;9.12;100.00;93309.56;5025341;28;20279;-65
2023/03/09 01:24:20;;;;;;;0.87;0.50;;;7.10;1.00;;;9.17;100.00;93304.09;5032593;28;20650;-65
2023/03/09 01:26:47;;;;;;;2.33;0.43;;;7.20;1.00;;;9.30;100.00;93289.16;5026337;28;20703;-65
2023/03/09 01:29:14;;;;;;;0.77;0.37;;;7.20;1.00;;;9.27;100.00;93287.88;5030007;28;20250;-66
2023/03/09 01:31:43;;;;;;;1.30;0.63;;;7.20;1.00;;;9.30;100.00;93291.81;5025238;28;20212;-66
2023/03/09 01:34:12;;;;;;;1.13;0.40;;;7.20;1.00;;;9.43;100.00;93299.69;5031056;28;21310;-66
2023/03/09 01:36:40;;;;;;;0.50;0.40;;;7.30;1.00;;;9.46;100.00;93301.72;5027748;28;20228;-66
2023/03/09 01:39:07;;;;;;;1.00;0.37;;;7.30;1.00;;;9.38;100.00;93291.06;5028689;28;20210;-66
2023/03/09 01:41:34;;;;;;;0.77;0.40;;;7.20;1.00;;;9.34;100.00;93298.09;5024548;28;20222;-66
2023/03/09 01:44:01;;;;;;;0.83;0.30;;;7.30;1.00;;;9.28;100.00;93302.75;5026338;28;20203;-66
2023/03/09 01:46:47;;;;;;;1.10;0.40;;;7.30;1.00;;;9.26;100.00;93301.47;5026319;28;20207;-66
2023/03/09 01:49:28;;;;;;;3.10;0.43;;;7.30;1.00;;;9.17;100.00;93292.69;5031553;28;20224;-66
2023/03/09 01:52:04;;;;;;;0.30;0.30;;;7.20;1.00;;;9.12;100.00;93295.47;5025630;28;20210;-66
2023/03/09 01:54:37;;;;;;;0.20;0.20;;;7.10;1.00;;;9.26;100.00;93290.84;5026982;28;20215;-66
2023/03/09 01:57:11;;;;;;;0.20;0.20;;;7.00;1.00;;;8.93;100.00;93263.03;5028713;28;20274;-66
2023/03/09 01:59:39;;;;;;;0.20;0.20;;;6.90;1.00;;;8.88;100.00;93261.28;5028360;28;20265;-66
2023/03/09 02:02:09;;;;;;;0.13;0.13;;;6.80;1.00;;;8.76;100.00;93270.91;5029903;28;20233;-66
2023/03/09 02:04:42;;;;;;;0.57;0.40;;;6.80;1.00;;;8.82;100.00;93245.75;5028986;28;20224;-66
2023/03/09 02:07:09;;;;;;;0.33;0.30;;;6.80;1.00;;;8.87;100.00;93243.75;5027072;28;20256;-66
2023/03/09 02:09:41;;;;;;;1.07;0.37;;;6.80;1.00;;;8.70;100.00;93266.81;5029059;28;20613;-66
2023/03/09 02:12:12;;;;;;;2.77;0.50;;;6.80;1.00;;;8.82;100.00;93246.56;5025777;28;20294;-66
2023/03/09 02:14:39;;;;;;;0.47;0.40;;;6.80;1.00;;;8.71;100.00;93236.47;5029018;28;20658;-66
2023/03/09 02:17:07;;;;;;;1.33;0.43;;;6.70;1.00;;;8.76;100.00;93245.13;5026388;28;20629;-66
2023/03/09 02:19:47;;;;;;;0.40;0.30;;;6.70;1.00;;;8.67;100.00;93246.94;5029849;28;20214;-66
2023/03/09 02:22:14;;;;;;;0.30;0.30;;;6.70;1.00;;;8.72;100.00;93246.81;5027120;28;20218;-66
2023/03/09 02:24:59;;;;;;;0.83;0.40;;;6.70;1.00;;;9.05;100.00;93248.09;5032584;28;20235;-66
2023/03/09 02:27:30;;;;;;;0.30;0.30;;;6.70;1.00;;;9.19;100.00;93255.94;5030891;28;20265;-66
2023/03/09 02:29:58;;;;;;;0.63;0.60;;;6.80;1.00;;;9.25;100.00;93233.44;5033454;28;20214;-66
2023/03/09 02:32:25;;;;;;;0.73;0.30;;;6.90;1.00;;;9.27;100.00;93252.53;5035557;28;20214;-66
2023/03/09 02:34:51;;;;;;;1.23;0.30;;;6.90;1.00;;;9.39;100.00;93236.78;5032614;28;20613;-66
2023/03/09 02:37:28;;;;;;;0.30;0.30;;;7.00;1.00;;;9.40;100.00;93227.69;5033746;28;20754;-66
2023/03/09 02:39:58;;;;;;;0.40;0.40;;;7.10;1.00;;;9.44;100.00;93242.72;5031748;28;20210;-66
2023/03/09 02:42:28;;;;;;;1.33;0.40;;;7.20;1.00;;;9.66;100.00;93265.78;5032775;28;20297;-66
2023/03/09 02:44:56;;;;;;;0.30;0.30;;;7.20;1.00;;;9.50;100.00;93299.22;5034346;28;20254;-66
2023/03/09 02:47:24;;;;;;;1.67;0.80;;;7.20;1.00;;;9.35;100.00;93300.44;5030940;28;20585;-66
2023/03/09 02:49:51;;;;;;;1.10;0.47;;;7.20;1.00;;;9.37;100.00;93289.47;5031665;28;20579;-66
2023/03/09 02:52:18;;;;;;;1.80;0.50;;;7.20;1.00;;;9.20;100.00;93292.88;5030736;28;20215;-66
2023/03/09 02:54:45;;;;;;;1.30;0.40;;;7.10;1.00;;;9.07;100.00;93293.75;5033093;28;20215;-66
2023/03/09 02:57:12;;;;;;;0.93;0.40;;;7.10;1.00;;;9.15;100.00;93316.13;5031360;28;20623;-66
2023/03/09 02:59:40;;;;;;;1.20;0.50;;;7.10;1.00;;;9.07;100.00;93306.22;5039179;28;20215;-66
2023/03/09 03:02:09;;;;;;;1.00;0.50;;;7.10;1.00;;;9.46;100.00;93322.22;5028825;28;20264;-66
2023/03/09 03:04:36;;;;;;;0.40;0.40;;;7.20;1.00;;;9.12;100.00;93340.66;5032744;28;20293;-66
2023/03/09 03:07:03;;;;;;;2.90;0.50;;;7.20;1.00;;;9.19;100.00;93362.31;5030809;28;20207;-66
2023/03/09 03:09:30;;;;;;;0.30;0.30;;;7.20;1.00;;;9.16;100.00;93392.16;5029333;28;20262;-66
2023/03/09 03:11:57;;;;;;;0.50;0.30;;;7.20;1.00;;;9.07;100.00;93402.72;5029881;28;20222;-66
2023/03/09 03:14:24;;;;;;;0.30;0.30;;;7.20;1.00;;;9.05;100.00;93444.00;5032420;28;20268;-66
2023/03/09 03:16:52;;;;;;;0.37;0.33;;;7.10;1.00;;;9.18;100.00;93443.94;5029313;28;20228;-66
2023/03/09 03:19:19;;;;;;;0.67;0.40;;;6.90;1.00;;;8.91;100.00;93436.09;5025696;28;20269;-66
2023/03/09 03:21:47;;;;;;;0.30;0.30;;;6.80;1.00;;;8.71;100.00;93446.38;5030556;28;20262;-66
2023/03/09 03:24:14;;;;;;;1.67;0.43;;;6.70;1.00;;;8.65;100.00;93450.22;5030149;28;20727;-66
2023/03/09 03:26:41;;;;;;;0.40;0.30;;;6.60;1.00;;;8.54;100.00;93435.59;5030933;28;20215;-67
2023/03/09 03:29:09;;;;;;;1.10;0.40;;;6.60;1.00;;;8.49;100.00;93473.69;5032627;28;20276;-66
2023/03/09 03:31:35;;;;;;;1.20;0.60;;;6.50;1.00;;;8.36;100.00;93479.78;5035884;28;20706;-66
2023/03/09 03:34:04;;;;;;;1.37;0.50;;;6.50;1.00;;;8.42;100.00;93467.22;5031824;28;20256;-66
2023/03/09 03:36:30;;;;;;;2.33;0.60;;;6.50;1.00;;;8.37;100.00;93478.72;5030377;28;20230;-66
2023/03/09 03:38:57;;;;;;;3.23;0.80;;;6.50;1.00;;;8.73;100.00;93490.16;5032014;28;20622;-66
2023/03/09 03:41:24;;;;;;;3.30;0.63;;;6.50;1.00;;;8.43;100.00;93501.41;5027377;28;20218;-67
2023/03/09 03:43:51;;;;;;;1.93;0.63;;;6.50;1.00;;;8.28;100.00;93527.50;5033726;28;20219;-66
2023/03/09 03:46:18;;;;;;;1.97;0.70;;;6.40;1.00;;;8.44;100.00;93499.56;5030568;28;20694;-66
2023/03/09 03:48:45;;;;;;;1.47;0.77;;;6.40;1.00;;;8.38;100.00;93524.66;5031342;28;20216;-66
2023/03/09 03:51:14;;;;;;;1.43;0.63;;;6.40;1.00;;;8.37;100.00;93507.91;5028053;28;20230;-66
2023/03/09 03:53:41;;;;;;;3.03;1.20;;;6.40;1.00;;;8.40;100.00;93517.97;5031327;28;20588;-66
2023/03/09 03:56:08;;;;;;;4.20;0.77;;;6.40;1.00;;;8.42;100.00;93525.63;5028962;28;20226;-66
2023/03/09 03:58:34;;;;;;;9.97;1.50;;;6.40;1.00;;;8.41;100.00;93527.50;5032333;28;20590;-66
2023/03/09 04:01:01;;;;;;;4.20;0.97;;;6.40;1.00;;;8.44;100.00;93526.13;5030116;28;20218;-66
2023/03/09 04:03:28;;;;;;;4.03;1.03;;;6.50;1.00;;;8.46;100.00;93502.69;5032002;28;20206;-66
2023/03/09 04:05:55;;;;;;;6.00;1.10;;;6.50;1.00;;;8.49;100.00;93518.84;5030480;28;20260;-66
2023/03/09 04:08:23;;;;;;;4.77;1.27;;;6.50;1.00;;;8.53;100.00;93543.72;5032642;28;20214;-67
2023/03/09 04:10:50;;;;;;;3.90;1.60;;;6.50;1.00;;;8.59;100.00;93539.91;5030806;28;20257;-66
2023/03/09 04:13:16;;;;;;;4.67;1.30;;;6.60;1.00;;;8.50;100.00;93554.94;5034870;28;20256;-67
2023/03/09 04:15:43;;;;;;;5.30;1.60;;;6.50;1.00;;;8.46;100.00;93558.47;5033780;28;20218;-66
2023/03/09 04:18:10;;;;;;;6.83;1.53;;;6.50;1.00;;;8.88;100.00;93547.53;5030471;28;20234;-66
2023/03/09 04:20:39;;;;;;;7.23;1.70;;;6.60;1.00;;;8.92;100.00;93549.28;5029476;28;20211;-67
2023/03/09 04:23:06;;;;;;;7.70;1.60;;;6.60;1.00;;;8.50;100.00;93562.91;5030227;28;20272;-67
2023/03/09 04:25:34;;;;;;;5.67;1.50;;;6.50;1.00;;;8.40;100.00;93580.91;5030231;28;20218;-66
2023/03/09 04:28:01;;;;;;;5.83;1.70;;;6.50;1.00;;;8.56;100.00;93582.19;5030424;28;20203;-66
2023/03/09 04:30:27;;;;;;;7.07;1.50;;;6.50;1.00;;;8.39;100.00;93590.75;5031164;28;20214;-67
2023/03/09 04:32:54;;;;;;;6.43;1.47;;;6.50;1.00;;;8.51;100.00;93600.88;5028894;28;20210;-67
2023/03/09 04:35:21;;;;;;;5.37;1.67;;;6.50;1.00;;;8.47;100.00;93592.72;5031861;28;20272;-67
2023/03/09 04:37:48;;;;;;;3.63;1.40;;;6.50;1.00;;;8.49;100.00;93624.28;5026747;28;20223;-66
2023/03/09 04:40:15;;;;;;;4.73;1.73;;;6.40;1.00;;;8.74;100.00;93613.19;5031310;28;20220;-67
2023/03/09 04:42:44;;;;;;;5.93;1.30;;;6.50;1.00;;;8.45;100.00;93625.94;5029207;28;20279;-67
2023/03/09 04:45:11;;;;;;;5.33;1.63;;;6.40;1.00;;;8.42;100.00;93634.53;5029625;28;20703;-67
2023/03/09 04:47:38;;;;;;;6.37;1.57;;;6.40;1.00;;;8.52;100.00;93626.38;5020195;28;20633;-67
2023/03/09 04:50:06;;;;;;;5.47;1.33;;;6.50;1.00;;;8.54;100.00;93632.97;5030674;28;20214;-67
2023/03/09 04:52:33;;;;;;;5.30;1.90;;;6.50;1.00;;;8.51;100.00;93628.22;5025906;28;20206;-67
2023/03/09 04:54:59;;;;;;;5.73;1.43;;;6.50;1.00;;;8.59;100.00;93632.06;5031019;28;20207;-67
2023/03/09 04:57:27;;;;;;;7.00;1.73;;;6.50;1.00;;;8.48;100.00;93626.16;5028732;28;20238;-67
2023/03/09 04:59:56;;;;;;;6.80;1.67;;;6.50;1.00;;;8.47;100.00;93635.19;5030273;28;20655;-67
2023/03/09 05:02:23;;;;;;;5.70;1.37;;;6.50;1.00;;;8.47;100.00;93661.00;5028688;28;20298;-66
2023/03/09 05:04:50;;;;;;;10.07;1.53;;;6.50;1.00;;;8.57;100.00;93642.97;5028036;28;20660;-67
2023/03/09 05:07:16;;;;;;;6.13;1.60;;;6.50;1.00;;;8.62;100.00;93642.13;5028119;28;20234;-66
2023/03/09 05:09:43;;;;;;;11.97;2.10;;;6.50;1.00;;;8.56;100.00;93636.09;5030387;28;20211;-67
2023/03/09 05:12:10;;;;;;;6.90;1.40;;;6.50;1.00;;;8.55;100.00;93660.28;5032362;28;20285;-67
2023/03/09 05:14:37;;;;;;;7.03;1.73;;;6.50;1.00;;;8.93;100.00;93656.41;5033550;28;20222;-65
2023/03/09 05:17:05;;;;;;;5.80;1.23;;;6.60;1.00;;;8.57;100.00;93668.78;5030398;28;20753;-65
2023/03/09 05:19:33;;;;;;;6.90;2.17;;;6.60;1.00;;;8.63;100.00;93652.44;5030111;28;20214;-65
2023/03/09 05:22:00;;;;;;;6.57;1.23;;;6.60;1.00;;;8.64;100.00;93663.84;5027531;28;20218;-66
2023/03/09 05:24:27;;;;;;;3.83;1.40;;;6.60;1.00;;;8.54;100.00;93679.97;5032873;28;20758;-66
2023/03/09 05:26:54;;;;;;;10.60;1.77;;;6.60;1.00;;;8.68;100.00;93680.78;5028882;28;20312;-66
2023/03/09 05:29:20;;;;;;;5.53;1.50;;;6.60;1.00;;;8.64;100.00;93695.72;5026981;28;20210;-66
2023/03/09 05:31:47;;;;;;;7.67;1.43;;;6.60;1.00;;;8.74;100.00;93696.34;5031311;28;20627;-66
2023/03/09 05:34:17;;;;;;;8.70;1.90;;;6.70;1.00;;;8.86;100.00;93704.63;5024605;28;20215;-66
2023/03/09 05:36:43;;;;;;;7.20;1.47;;;6.80;1.00;;;8.82;100.00;93722.22;5023684;28;20239;-65
2023/03/09 05:39:10;;;;;;;5.33;1.43;;;6.80;1.00;;;9.01;100.00;93717.63;5023685;28;20623;-65
2023/03/09 05:41:39;;;;;;;7.83;1.63;;;6.80;1.00;;;8.92;100.00;93713.28;5029252;28;20611;-65
2023/03/09 05:44:06;;;;;;;7.83;1.43;;;6.80;1.00;;;8.92;100.00;93722.03;5026997;28;20276;-65
2023/03/09 05:46:32;;;;;;;7.57;1.63;;;6.70;1.00;;;9.11;100.00;93729.94;5027756;28;20223;-67
2023/03/09 05:48:59;;;;;;;5.37;1.40;;;6.70;1.00;;;8.73;100.00;93729.28;5023749;28;20219;-65
2023/03/09 05:51:28;;;;;;;5.60;1.30;;;6.60;1.00;;;8.69;100.00;93730.19;5027151;28;20246;-65
2023/03/09 05:53:54;;;;;;;8.20;1.23;;;6.60;1.00;;;9.00;100.00;93732.00;5023185;28;20206;-65
2023/03/09 05:56:21;;;;;;;6.23;1.37;;;6.50;1.00;;;8.89;100.00;93743.88;5019727;28;20215;-64
2023/03/09 05:58:50;;;;;;;7.17;1.53;;;6.60;1.00;;;9.01;100.00;93748.72;5017754;28;20593;-66
2023/03/09 06:01:20;;;;;;;4.97;1.30;;;6.60;1.00;;;8.84;100.00;93753.84;5025435;28;20545;-66
2023/03/09 06:03:46;;;;;;;3.10;0.90;;;6.50;1.00;;;8.82;100.00;93767.41;5024243;28;20719;-65
2023/03/09 06:06:14;;;;;;;8.97;1.63;;;6.50;1.00;;;9.02;100.00;93777.69;5025599;28;20987;-65
2023/03/09 06:08:43;;;;;;;4.07;1.10;;;6.50;1.00;;;9.14;100.00;93771.88;5024370;28;20210;-65
2023/03/09 06:11:10;;;;;;;2.43;1.30;;;6.60;1.00;;;9.04;100.00;93769.41;5026273;28;20214;-66
2023/03/09 06:13:37;;;;;;;5.87;1.53;;;6.60;1.00;;;9.14;100.00;93788.63;5024651;28;20309;-66
2023/03/09 06:16:05;;;;;;;8.40;1.37;;;6.60;1.00;;;8.88;100.00;93784.84;5025085;28;20215;-66
2023/03/09 06:18:32;;;;;;;6.03;1.17;;;6.60;1.00;;;9.17;100.00;93789.91;5025489;28;20507;-66
2023/03/09 06:21:01;;;;;;;5.70;1.43;;;6.60;1.00;;;9.21;100.00;93786.38;5025911;28;20565;-66
2023/03/09 06:23:28;;;;;;;7.10;1.30;;;6.60;1.00;;;9.10;100.00;93795.63;5025019;28;20239;-70
2023/03/09 06:25:57;;;;;;;8.83;1.50;;;6.70;1.00;;;9.36;100.00;93802.03;5028925;28;20210;-65
2023/03/09 06:28:25;;;;;;;6.03;1.30;;;6.70;1.00;;;8.98;100.00;93803.28;5027304;28;20218;-68
2023/03/09 06:30:52;;;;;;;8.03;1.20;;;6.80;1.00;;;9.00;100.00;93802.97;5027352;28;20272;-68
2023/03/09 06:33:19;;;;;;;4.57;1.37;;;6.70;1.00;;;9.11;100.00;93815.00;5023686;28;20218;-64
2023/03/09 06:35:46;;;;;;;4.93;1.07;;;6.80;1.00;;;9.03;100.00;93823.69;5033399;28;20210;-65
2023/03/09 06:38:12;;;;;;;5.60;1.30;;;6.80;1.00;;;9.05;100.00;93824.97;5028098;28;20242;-65
2023/03/09 06:40:39;;;;;;;5.73;1.30;;;6.80;1.00;;;9.19;100.00;93848.91;5028906;28;20206;-64
2023/03/09 06:43:07;;;;;;;5.77;1.50;;;6.80;1.00;;;8.95;100.00;93841.09;5032104;28;20217;-65
2023/03/09 06:45:35;;;;;;;6.20;1.37;;;6.70;1.00;;;8.84;100.00;93858.25;5028240;28;20631;-65
2023/03/09 06:48:02;;;;;;;5.00;1.47;;;6.70;1.00;;;8.97;100.00;93860.19;5026650;28;20215;-65
2023/03/09 06:50:29;;;;;;;5.30;1.10;;;6.80;1.00;;;8.97;100.00;93876.13;5026324;28;20214;-65
2023/03/09 06:52:56;;;;;;;7.63;1.30;;;6.70;1.00;;;8.92;100.00;93859.47;5025611;28;20211;-65
2023/03/09 06:55:22;;;;;;;7.40;1.47;;;6.70;1.00;;;9.01;100.00;93865.69;5026626;28;20221;-64
2023/03/09 06:57:49;;;;;;;4.73;1.00;;;6.80;1.00;;;9.05;100.00;93856.88;5027909;28;20231;-64
2023/03/09 07:00:19;;;;;;;5.67;1.20;;;6.90;1.00;;;9.42;100.00;93858.59;5028871;28;20234;-64
2023/03/09 07:02:46;;;;;;;7.20;1.70;;;6.90;1.00;;;9.49;100.00;93851.03;5020460;28;20266;-65
2023/03/09 07:05:13;;;;;;;3.70;1.27;;;6.90;1.00;;;9.54;100.00;93859.69;5035692;28;20223;-65
2023/03/09 07:07:41;;;;;;;4.50;1.37;;;6.90;1.00;;;9.57;100.00;93861.75;5025483;28;20262;-65
2023/03/09 07:10:09;;;;;;;9.40;1.53;;;6.90;1.00;;;9.63;100.00;93857.91;5032539;28;20220;-64
2023/03/09 07:12:36;;;;;;;4.23;1.10;;;6.90;1.00;;;9.72;100.00;93866.81;5029936;28;20266;-69
2023/03/09 07:15:04;;;;;;;8.23;1.10;;;7.10;1.00;;;9.83;100.00;93880.69;5032667;28;20222;-69
2023/03/09 07:17:33;;;;;;;3.40;1.03;;;7.20;1.00;;;9.82;100.00;93879.09;5029335;28;20229;-69
2023/03/09 07:20:00;;;;;;;3.70;1.10;;;7.20;1.00;;;9.83;100.00;93888.66;5034985;28;20209;-68
2023/03/09 07:22:27;;;;;;;7.50;1.43;;;7.10;1.00;;;9.82;100.00;93898.53;5030796;28;20254;-69
2023/03/09 07:24:53;;;;;;;6.97;1.30;;;7.20;1.00;;;9.61;100.00;93892.03;5031277;28;20235;-68
2023/03/09 07:27:20;;;;;;;6.17;1.37;;;7.10;1.00;;;9.61;100.00;93905.34;5029784;28;20261;-69
2023/03/09 07:29:47;;;;;;;5.50;1.00;;;7.20;1.00;;;9.72;100.00;93905.91;5035680;28;20215;-69
2023/03/09 07:32:14;;;;;;;4.80;1.10;;;7.40;1.00;;;10.13;100.00;93903.31;5029606;28;20307;-67
2023/03/09 07:34:43;;;;;;;3.53;0.80;;;7.50;1.00;;;10.32;100.00;93921.53;5029847;28;20260;-67
2023/03/09 07:37:10;;;;;;;5.67;1.30;;;7.50;1.00;;;10.23;100.00;93933.97;5032148;28;20298;-67
2023/03/09 07:39:36;;;;;;;5.20;1.10;;;7.60;1.00;;;10.38;100.00;93932.09;5033188;28;20685;-68
2023/03/09 07:42:04;;;;;;;4.93;1.17;;;7.60;1.00;;;9.89;100.00;93943.41;5027858;28;20725;-68
2023/03/09 07:44:31;;;;;;;6.80;1.53;;;7.60;1.00;;;10.22;100.00;93944.91;5034773;28;20213;-67
2023/03/09 07:46:57;;;;;;;3.30;1.03;;;7.60;1.00;;;10.17;100.00;93957.56;5027125;28;20216;-68
2023/03/09 07:49:24;;;;;;;7.97;1.40;;;7.60;1.00;;;10.21;100.00;93959.31;5028252;28;20207;-68
2023/03/09 07:51:53;;;;;;;7.10;1.50;;;7.50;1.00;;;10.17;100.00;93974.31;5032708;28;20209;-68
2023/03/09 07:54:20;;;;;;;6.07;1.30;;;7.50;1.00;;;10.43;100.00;93973.53;5027217;28;20217;-68
2023/03/09 07:56:50;;;;;;;5.07;1.30;;;7.50;1.00;;;10.55;100.00;93981.03;5030595;28;20204;-69
2023/03/09 07:59:19;;;;;;;3.20;1.03;;;7.60;1.00;;;10.39;100.00;93987.72;5029966;28;20670;-69
2023/03/09 08:01:45;;;;;;;5.33;1.47;;;7.60;1.00;;;10.73;100.00;93989.97;5030420;28;20207;-69
2023/03/09 08:04:13;;;;;;;5.60;1.40;;;7.70;1.00;;;10.78;100.00;93996.78;5028285;28;20214;-68
2023/03/09 08:06:40;;;;;;;3.33;1.20;;;7.70;1.00;;;10.74;100.00;94005.66;5028991;28;20207;-69
2023/03/09 08:09:14;;;;;;;5.27;1.00;;;7.80;1.00;;;10.56;100.00;94006.59;5028237;28;20270;-69
2023/03/09 08:11:43;;;;;;;5.97;1.10;;;7.80;1.00;;;10.76;100.00;94012.28;5030121;28;20219;-69
2023/03/09 08:14:09;;;;;;;6.23;1.47;;;7.80;1.00;;;10.68;100.00;94014.84;5025706;28;20256;-68
2023/03/09 08:16:36;;;;;;;1.80;0.77;;;7.80;1.00;;;10.84;100.00;94016.09;5028891;28;20209;-69
2023/03/09 08:19:03;;;;;;;1.80;0.83;;;7.90;1.00;;;10.46;100.00;94022.78;5022865;28;20661;-68
2023/03/09 08:21:30;;;;;;;3.53;0.90;;;7.90;1.00;;;10.60;100.00;94021.66;5026816;28;20208;-68
2023/03/09 08:23:59;;;;;;;3.73;1.20;;;7.90;1.00;;;10.79;100.00;94040.22;5026292;28;20241;-68
2023/03/09 08:26:27;;;;;;;2.20;0.90;;;7.90;1.00;;;10.98;100.00;94039.03;5028788;28;20235;-67
2023/03/09 08:28:54;;;;;;;2.93;1.00;;;7.90;1.00;;;10.75;100.00;94037.34;5028205;28;20212;-67
2023/03/09 08:31:22;;;;;;;1.97;0.80;;;8.00;1.00;;;10.91;100.00;94043.19;5028054;28;20599;-67
2023/03/09 08:33:49;;;;;;;3.90;1.00;;;8.00;1.00;;;10.90;100.00;94047.72;5024626;28;20216;-67
2023/03/09 08:36:19;;;;;;;6.63;1.17;;;8.00;1.00;;;10.63;100.00;94054.94;5030565;28;20206;-67
2023/03/09 08:38:47;;;;;;;4.83;0.90;;;8.00;1.00;;;10.84;100.00;94067.56;5028994;28;20316;-67
2023/03/09 08:41:15;;;;;;;4.83;1.03;;;8.00;1.00;;;10.60;100.00;94077.66;5029002;28;20917;-68
2023/03/09 08:43:43;;;;;;;5.40;1.03;;;8.00;1.00;;;10.80;100.00;94071.91;5030180;28;20607;-68
2023/03/09 08:46:11;;;;;;;2.80;0.97;;;8.00;1.00;;;10.70;100.00;94092.69;5029300;28;20668;-65
2023/03/09 08:48:37;;;;;;;2.17;0.80;;;7.90;1.00;;;10.49;100.00;94100.25;5028543;28;20576;-64
2023/03/09 08:51:07;;;;;;;3.80;0.90;;;7.80;1.00;;;10.50;100.00;94111.72;5027846;28;20322;-63
2023/03/09 08:53:34;;;;;;;4.10;1.20;;;7.80;1.00;;;10.51;100.00;94108.72;5027230;28;20221;-62
2023/03/09 08:56:05;;;;;;;3.27;1.00;;;7.70;1.00;;;10.63;100.00;94115.47;5028639;28;20232;-65
2023/03/09 08:58:32;;;;;;;6.13;1.10;;;7.70;1.00;;;10.48;100.00;94124.53;5028639;28;20229;-63
2023/03/09 09:01:02;;;;;;;4.63;1.17;;;7.70;1.00;;;10.49;100.00;94129.56;5025467;28;20268;-64
2023/03/09 09:03:29;;;;;;;3.57;0.80;;;7.60;1.00;;;10.61;100.00;94129.09;5027435;28;20300;-64
2023/03/09 09:05:56;;;;;;;6.27;1.50;;;7.60;1.00;;;10.20;100.00;94123.69;5027015;28;20212;-64
2023/03/09 09:08:24;;;;;;;3.23;1.10;;;7.60;1.00;;;10.63;100.00;94120.81;5026713;28;20336;-64
2023/03/09 09:10:51;;;;;;;4.57;1.00;;;7.70;1.00;;;10.89;100.00;94118.16;5026508;28;20267;-64
2023/03/09 09:13:17;;;;;;;4.93;1.20;;;7.90;1.00;;;11.16;100.00;94118.09;5027885;28;20275;-64
2023/03/09 09:15:44;;;;;;;6.57;0.90;;;8.10;1.00;;;11.25;100.00;94118.19;5027410;28;20221;-64
2023/03/09 09:18:12;;;;;;;3.67;1.17;;;8.20;1.00;;;11.69;100.00;94122.91;5027835;28;20226;-64
2023/03/09 09:20:39;;;;;;;2.03;0.90;;;8.50;1.00;;;11.47;100.00;94124.38;5025788;28;20605;-64
2023/03/09 09:23:06;;;;;;;3.80;0.80;;;8.60;1.00;;;11.56;100.00;94116.47;5027921;28;20249;-64
2023/03/09 09:25:33;;;;;;;1.97;0.67;;;8.70;1.00;;;11.82;100.00;94126.28;5027443;28;20210;-64
2023/03/09 09:28:00;;;;;;;2.83;0.90;;;8.80;1.00;;;11.56;100.00;94122.59;5028332;28;20211;-65
2023/03/09 09:30:27;;;;;;;4.43;1.00;;;8.80;1.00;;;11.54;100.00;94129.31;5030630;28;20206;-64
2023/03/09 09:32:53;;;;;;;2.70;0.93;;;8.70;1.00;;;11.38;100.00;94126.19;5033373;28;20214;-65
2023/03/09 09:35:22;;;;;;;3.97;0.90;;;8.60;1.00;;;11.28;100.00;94129.09;5027533;28;20264;-65
2023/03/09 09:37:49;;;;;;;2.43;0.90;;;8.60;1.00;;;11.60;100.00;94130.03;5029617;28;20206;-65
2023/03/09 09:40:16;;;;;;;2.73;0.80;;;8.60;1.00;;;11.47;100.00;94131.63;5027290;28;20215;-64
2023/03/09 09:42:44;;;;;;;2.50;1.00;;;8.60;1.00;;;11.58;100.00;94133.78;5026847;28;20214;-64
2023/03/09 09:45:28;;;;;;;2.53;0.93;;;8.50;1.00;;;11.40;100.00;94137.34;5025914;28;21033;-65
2023/03/09 09:47:56;;;;;;;1.80;0.90;;;8.50;1.00;;;11.43;100.00;94142.09;5024984;28;20775;-64
2023/03/09 09:50:39;;;;;;;2.43;0.80;;;8.50;1.00;;;11.64;100.00;94136.34;5027406;28;20214;-64
2023/03/09 09:53:13;;;;;;;2.43;0.77;;;8.70;1.00;;;12.00;100.00;94147.81;5024849;28;20262;-64
2023/03/09 09:55:42;;;;;;;5.93;0.97;;;8.90;1.00;;;12.12;100.00;94148.84;5026240;28;20205;-65
2023/03/09 09:58:24;;;;;;;2.53;1.13;;;9.00;1.00;;;12.16;100.00;94152.47;5026580;28;20237;-65
2023/03/09 10:00:54;;;;;;;2.77;0.97;;;9.10;1.00;;;12.15;100.00;94166.94;5021647;28;20703;-65
2023/03/09 10:03:26;;;;;;;5.03;0.83;;;9.10;1.00;;;11.80;100.00;94173.09;5021148;28;20254;-65
2023/03/09 10:05:59;;;;;;;3.20;0.80;;;9.00;1.00;;;12.05;100.00;94179.75;5025821;28;20218;-64
2023/03/09 10:08:36;;;;;;;3.67;0.90;;;9.00;1.00;;;11.92;100.00;94180.56;5028985;28;20205;-65
2023/03/09 10:11:13;;;;;;;3.33;0.80;;;8.90;1.00;;;11.68;100.00;94201.41;5019664;28;20215;-63
2023/03/09 10:13:45;;;;;;;2.70;0.60;;;8.70;1.00;;;11.72;100.00;94194.38;5026137;28;20202;-64
2023/03/09 10:16:17;;;;;;;4.40;1.17;;;8.70;1.00;;;11.63;100.00;94183.63;5030818;28;20210;-63
2023/03/09 10:18:49;;;;;;;1.67;0.80;;;8.60;1.00;;;11.57;100.00;94182.88;5027212;28;20222;-64
2023/03/09 10:21:24;;;;;;;2.80;0.70;;;8.50;1.00;;;11.81;100.00;94193.34;5028487;28;20218;-64
2023/03/09 10:23:52;;;;;;;1.37;0.90;;;8.60;1.00;;;11.70;100.00;94186.66;5028983;28;20233;-64
2023/03/09 10:26:35;;;;;;;2.13;0.80;;;8.60;1.00;;;11.67;100.00;94183.81;5026989;28;20656;-64
2023/03/09 10:29:16;;;;;;;3.50;0.80;;;8.50;1.00;;;11.48;100.00;94187.38;5027430;28;20206;-64
2023/03/09 10:31:52;;;;;;;1.90;0.63;;;8.50;1.00;;;11.68;100.00;94185.38;5025113;28;20261;-63
2023/03/09 10:34:23;;;;;;;1.80;0.57;;;8.60;1.00;;;11.60;100.00;94186.88;5022632;28;20215;-63